Time;durP1;ratioP1;P1;durP2;ratioP2;P2;SDS_P1;SDS_P2;PMS_P1;PMS_P2;Temp;Humidity;BMP_temperature;BMP_pressure;BME280_temperature;BME280_humidity;BME280_pressure;Samples;Min_cycle;Max_cycle;Signal;HPM_P1;HPM_P2
2023/08/14 00:01:00;;;;;;;2.78;1.90;;;20.10;99.90;;;;;;4989518;28;20038;-78
2023/08/14 00:03:26;;;;;;;3.35;2.28;;;20.00;99.90;;;;;;4990843;28;20106;-78
2023/08/14 00:05:51;;;;;;;2.50;2.30;;;19.90;99.90;;;;;;4991136;28;20475;-80
2023/08/14 00:08:20;;;;;;;2.67;2.47;;;20.00;99.90;;;;;;4990969;28;20112;-78
2023/08/14 00:10:46;;;;;;;2.47;1.92;;;20.00;99.90;;;;;;4990973;28;20578;-78
2023/08/14 00:13:12;;;;;;;3.78;1.90;;;20.00;99.90;;;;;;4990472;28;20204;-79
2023/08/14 00:15:38;;;;;;;5.15;2.40;;;20.00;99.90;;;;;;4990531;28;20037;-77
2023/08/14 00:18:04;;;;;;;2.30;1.70;;;20.00;99.90;;;;;;4989606;28;20019;-77
2023/08/14 00:20:30;;;;;;;3.88;1.65;;;20.00;99.90;;;;;;4990744;28;20092;-79
2023/08/14 00:22:56;;;;;;;2.58;1.92;;;19.80;99.90;;;;;;4989331;28;20026;-78
2023/08/14 00:25:22;;;;;;;1.70;1.60;;;19.80;99.90;;;;;;4990596;28;20038;-79
2023/08/14 00:27:47;;;;;;;3.05;2.30;;;19.70;99.90;;;;;;4990577;28;20141;-76
2023/08/14 00:30:13;;;;;;;2.17;2.05;;;19.60;99.90;;;;;;4989012;28;20132;-76
2023/08/14 00:32:39;;;;;;;2.55;2.35;;;19.60;99.90;;;;;;4990408;28;20018;-77
2023/08/14 00:35:05;;;;;;;2.80;2.15;;;19.60;99.90;;;;;;4988969;28;20030;-78
2023/08/14 00:37:45;;;;;;;1.70;1.60;;;19.60;99.90;;;;;;4988798;28;20464;-80
2023/08/14 00:40:12;;;;;;;3.05;2.53;;;19.60;99.90;;;;;;4988791;28;20498;-75
2023/08/14 00:42:39;;;;;;;2.95;2.08;;;19.50;99.90;;;;;;4988921;28;20483;-77
2023/08/14 00:45:06;;;;;;;2.83;1.95;;;19.50;99.90;;;;;;4988511;28;20034;-77
2023/08/14 00:47:34;;;;;;;4.45;2.20;;;19.40;99.90;;;;;;4970818;28;20061;-77
2023/08/14 00:50:01;;;;;;;7.43;2.45;;;19.40;99.90;;;;;;4970920;28;20045;-76
2023/08/14 00:52:31;;;;;;;7.88;2.65;;;19.40;99.90;;;;;;4971144;28;20117;-77
2023/08/14 00:55:01;;;;;;;2.72;2.45;;;19.30;99.90;;;;;;4986966;28;20136;-77
2023/08/14 00:57:28;;;;;;;4.65;2.22;;;19.30;99.90;;;;;;4971074;28;20021;-77
2023/08/14 00:59:55;;;;;;;3.15;2.35;;;19.40;99.90;;;;;;4988915;28;20105;-77
2023/08/14 01:02:22;;;;;;;2.47;1.98;;;19.50;99.90;;;;;;4970982;28;20387;-76
2023/08/14 01:04:48;;;;;;;3.05;2.35;;;19.40;99.90;;;;;;4971768;28;20081;-77
2023/08/14 01:07:13;;;;;;;3.20;2.60;;;19.40;99.90;;;;;;4988852;28;20026;-78
2023/08/14 01:09:39;;;;;;;2.83;1.95;;;19.40;99.90;;;;;;4988828;28;20041;-79
2023/08/14 01:12:19;;;;;;;4.07;2.05;;;19.40;99.90;;;;;;4990062;28;20456;-80
2023/08/14 01:14:51;;;;;;;4.57;2.45;;;19.40;99.90;;;;;;4990434;28;20147;-79
2023/08/14 01:17:19;;;;;;;5.88;2.67;;;19.50;99.90;;;;;;4989655;28;20284;-77
2023/08/14 01:19:51;;;;;;;3.13;2.15;;;19.50;99.90;;;;;;4989668;28;20022;-75
2023/08/14 01:22:35;;;;;;;2.58;2.38;;;19.40;99.90;;;;;;4990108;28;20030;-75
2023/08/14 01:25:30;;;;;;;13.10;3.75;;;19.40;99.90;;;;;;4991327;28;20088;-77
2023/08/14 01:27:56;;;;;;;4.72;1.85;;;19.50;99.90;;;;;;4993682;28;20446;-78
2023/08/14 01:30:22;;;;;;;3.22;2.53;;;19.50;99.90;;;;;;4993314;28;20038;-78
2023/08/14 01:32:49;;;;;;;2.67;2.15;;;19.50;99.90;;;;;;4975604;28;20426;-76
2023/08/14 01:35:24;;;;;;;2.63;2.42;;;19.50;99.90;;;;;;4993484;28;20034;-77
2023/08/14 01:38:34;;;;;;;3.85;1.83;;;19.50;99.90;;;;;;4993347;28;20126;-76
2023/08/14 01:41:07;;;;;;;3.55;2.28;;;19.50;99.90;;;;;;4939335;28;20042;-78
2023/08/14 01:43:44;;;;;;;2.75;2.50;;;19.50;99.90;;;;;;4993634;28;20036;-77
2023/08/14 01:46:11;;;;;;;2.97;2.53;;;19.50;99.90;;;;;;4993153;28;20077;-77
2023/08/14 01:48:38;;;;;;;5.60;2.10;;;19.60;99.90;;;;;;4993394;28;20029;-78
2023/08/14 01:51:04;;;;;;;3.72;2.33;;;19.60;99.90;;;;;;4975466;28;20038;-77
2023/08/14 01:53:33;;;;;;;7.03;3.15;;;19.60;99.90;;;;;;4994685;28;20029;-76
2023/08/14 01:55:59;;;;;;;3.65;2.50;;;19.50;99.90;;;;;;4993229;28;20147;-76
2023/08/14 01:58:25;;;;;;;6.97;2.83;;;19.50;99.90;;;;;;4993130;28;20668;-75
2023/08/14 02:00:50;;;;;;;4.75;2.83;;;19.50;99.90;;;;;;4992762;28;20023;-76
2023/08/14 02:03:17;;;;;;;2.90;2.13;;;19.50;99.90;;;;;;4993235;28;20257;-77
2023/08/14 02:05:43;;;;;;;3.75;2.38;;;19.50;99.90;;;;;;4992846;28;20030;-76
2023/08/14 02:08:08;;;;;;;5.55;3.08;;;19.50;99.90;;;;;;4992848;28;20089;-76
2023/08/14 02:10:34;;;;;;;3.03;2.45;;;19.40;99.90;;;;;;4992684;28;20046;-76
2023/08/14 02:12:59;;;;;;;5.85;2.90;;;19.40;99.90;;;;;;4992745;28;20018;-77
2023/08/14 02:15:25;;;;;;;2.55;2.35;;;19.40;99.90;;;;;;4992921;28;20030;-76
2023/08/14 02:17:51;;;;;;;2.35;2.15;;;19.30;99.90;;;;;;4992460;28;20050;-75
2023/08/14 02:20:17;;;;;;;2.47;2.28;;;19.30;99.90;;;;;;4992647;28;20069;-78
2023/08/14 02:22:43;;;;;;;3.40;2.78;;;19.40;99.90;;;;;;4992851;28;20037;-76
2023/08/14 02:25:08;;;;;;;3.13;2.10;;;19.30;99.90;;;;;;4991576;28;20022;-76
2023/08/14 02:27:34;;;;;;;3.00;2.60;;;19.40;99.90;;;;;;4992710;28;20104;-76
2023/08/14 02:29:59;;;;;;;2.78;2.03;;;19.30;99.90;;;;;;4992429;28;20046;-77
2023/08/14 02:32:25;;;;;;;4.65;1.95;;;19.20;99.90;;;;;;4990951;28;20032;-75
2023/08/14 02:34:52;;;;;;;9.85;3.13;;;19.10;99.90;;;;;;4992570;28;20034;-78
2023/08/14 02:37:18;;;;;;;3.80;2.40;;;19.10;99.90;;;;;;4992567;28;20026;-78
2023/08/14 02:39:45;;;;;;;7.05;2.25;;;19.10;99.90;;;;;;4992954;28;20030;-79
2023/08/14 02:42:11;;;;;;;3.17;2.78;;;19.00;99.90;;;;;;4992172;28;20026;-77
2023/08/14 02:44:37;;;;;;;2.65;2.42;;;19.00;99.90;;;;;;4992794;28;20505;-76
2023/08/14 02:47:03;;;;;;;3.22;2.92;;;18.90;99.90;;;;;;4992360;28;20486;-77
2023/08/14 02:49:29;;;;;;;3.20;2.85;;;18.90;99.90;;;;;;4991905;28;20178;-78
2023/08/14 02:51:55;;;;;;;5.53;3.25;;;19.00;99.90;;;;;;4974583;28;20356;-77
2023/08/14 02:54:21;;;;;;;2.83;2.63;;;19.00;99.90;;;;;;4992417;28;20054;-77
2023/08/14 02:56:47;;;;;;;2.95;2.75;;;19.00;99.90;;;;;;4992196;28;20034;-76
2023/08/14 02:59:13;;;;;;;2.78;2.58;;;18.90;99.90;;;;;;4992099;28;20679;-78
2023/08/14 03:01:39;;;;;;;3.55;2.63;;;18.90;99.90;;;;;;4991755;28;20267;-80
2023/08/14 03:04:05;;;;;;;6.03;3.30;;;18.90;99.90;;;;;;4991957;28;20281;-79
2023/08/14 03:06:31;;;;;;;2.75;2.55;;;18.90;99.90;;;;;;4991835;28;20101;-77
2023/08/14 03:08:58;;;;;;;6.22;3.38;;;18.90;99.90;;;;;;4992064;28;20054;-77
2023/08/14 03:11:23;;;;;;;3.83;2.95;;;18.90;99.90;;;;;;4992257;28;20030;-79
2023/08/14 03:13:49;;;;;;;4.20;2.95;;;18.90;99.90;;;;;;4974518;28;20023;-78
2023/08/14 03:16:15;;;;;;;3.30;2.78;;;18.90;99.90;;;;;;4991435;28;20026;-78
2023/08/14 03:18:41;;;;;;;5.60;2.67;;;18.80;99.90;;;;;;4990251;28;20029;-76
2023/08/14 03:21:07;;;;;;;3.35;2.58;;;18.80;99.90;;;;;;4991673;28;20080;-76
2023/08/14 03:23:32;;;;;;;6.53;2.90;;;18.70;99.90;;;;;;4991722;28;20030;-75
2023/08/14 03:25:58;;;;;;;7.85;3.15;;;18.60;99.90;;;;;;4973808;28;20038;-75
2023/08/14 03:28:24;;;;;;;7.63;3.10;;;18.60;99.90;;;;;;4991589;28;20280;-78
2023/08/14 03:30:50;;;;;;;5.18;3.65;;;18.60;99.90;;;;;;4991418;28;20039;-75
2023/08/14 03:33:16;;;;;;;4.53;3.42;;;18.50;99.90;;;;;;4991425;28;20018;-77
2023/08/14 03:35:41;;;;;;;4.53;3.72;;;18.50;99.90;;;;;;4991561;28;20105;-76
2023/08/14 03:38:07;;;;;;;3.40;3.10;;;18.50;99.90;;;;;;4991128;28;20049;-76
2023/08/14 03:40:33;;;;;;;5.80;3.22;;;18.40;99.90;;;;;;4991012;28;20018;-76
2023/08/14 03:42:58;;;;;;;7.07;3.53;;;18.40;99.90;;;;;;4991227;28;20374;-76
2023/08/14 03:45:24;;;;;;;5.45;2.78;;;18.30;99.90;;;;;;4990807;28;20286;-75
2023/08/14 03:47:49;;;;;;;4.53;2.97;;;18.30;99.90;;;;;;4989864;28;20026;-76
2023/08/14 03:50:15;;;;;;;8.93;3.40;;;18.30;99.90;;;;;;4989925;28;20057;-76
2023/08/14 03:52:41;;;;;;;4.20;2.65;;;18.40;99.90;;;;;;4988802;28;20034;-76
2023/08/14 03:55:07;;;;;;;7.50;2.80;;;18.40;99.90;;;;;;4989086;28;20031;-77
2023/08/14 03:57:33;;;;;;;5.00;3.20;;;18.40;99.90;;;;;;4988933;28;20426;-76
2023/08/14 03:59:59;;;;;;;3.00;2.75;;;18.40;99.90;;;;;;4988751;28;20053;-77
2023/08/14 04:02:24;;;;;;;3.58;3.03;;;18.30;99.90;;;;;;4989007;28;20026;-76
2023/08/14 04:04:50;;;;;;;4.53;3.28;;;18.30;99.90;;;;;;4989033;28;20061;-76
2023/08/14 04:07:16;;;;;;;4.65;3.25;;;18.30;99.90;;;;;;4989218;28;20037;-76
2023/08/14 04:09:41;;;;;;;6.88;3.60;;;18.30;99.90;;;;;;4989558;28;20069;-76
2023/08/14 04:12:09;;;;;;;10.55;4.25;;;18.30;99.90;;;;;;4989036;28;20026;-76
2023/08/14 04:14:35;;;;;;;5.05;2.42;;;18.30;99.90;;;;;;4990404;28;20382;-76
2023/08/14 04:17:01;;;;;;;3.90;2.50;;;18.30;99.90;;;;;;4989923;28;20034;-76
2023/08/14 04:19:27;;;;;;;3.20;2.88;;;18.20;99.90;;;;;;4989340;28;20133;-77
2023/08/14 04:21:52;;;;;;;5.72;1.92;;;18.10;99.90;;;;;;4990391;28;20443;-77
2023/08/14 04:24:18;;;;;;;2.80;2.45;;;18.10;99.90;;;;;;4972986;28;20475;-76
2023/08/14 04:26:44;;;;;;;2.67;2.47;;;18.10;99.90;;;;;;4990369;28;20109;-79
2023/08/14 04:29:10;;;;;;;7.32;2.95;;;18.00;99.90;;;;;;4990176;28;20030;-76
2023/08/14 04:31:36;;;;;;;4.03;3.63;;;17.90;99.90;;;;;;4990179;28;20211;-76
2023/08/14 04:34:03;;;;;;;7.78;3.38;;;17.90;99.90;;;;;;4990131;28;20032;-77
2023/08/14 04:36:32;;;;;;;5.25;3.10;;;17.90;99.90;;;;;;4990067;28;20487;-76
2023/08/14 04:38:58;;;;;;;38.10;4.70;;;17.90;99.90;;;;;;4990294;28;20045;-76
2023/08/14 04:41:25;;;;;;;25.80;3.95;;;17.90;99.90;;;;;;4990466;28;20114;-76
2023/08/14 04:43:51;;;;;;;4.80;2.78;;;17.80;99.90;;;;;;4990044;28;20014;-75
2023/08/14 04:46:32;;;;;;;3.45;2.70;;;17.80;99.90;;;;;;4989757;28;20022;-75
2023/08/14 04:48:59;;;;;;;6.88;3.00;;;17.80;99.90;;;;;;4990021;28;20034;-75
2023/08/14 04:51:25;;;;;;;10.02;2.78;;;17.80;99.90;;;;;;4989773;28;20038;-76
2023/08/14 04:53:51;;;;;;;2.50;2.30;;;17.70;99.90;;;;;;4989847;28;20023;-75
2023/08/14 04:56:17;;;;;;;3.78;2.35;;;17.80;99.90;;;;;;4988441;28;20026;-75
2023/08/14 04:58:44;;;;;;;2.65;1.83;;;17.80;99.90;;;;;;4990873;28;20038;-75
2023/08/14 05:01:09;;;;;;;26.40;3.38;;;17.70;99.90;;;;;;4976227;28;20034;-75
2023/08/14 05:03:35;;;;;;;5.45;3.05;;;17.80;99.90;;;;;;4994105;28;20033;-76
2023/08/14 05:06:01;;;;;;;3.13;2.63;;;17.90;99.90;;;;;;4993835;28;20089;-76
2023/08/14 05:08:27;;;;;;;4.30;3.08;;;18.10;99.90;;;;;;4993664;28;20114;-76
2023/08/14 05:10:54;;;;;;;5.13;2.78;;;18.20;99.90;;;;;;4975999;28;20125;-77
2023/08/14 05:13:19;;;;;;;3.17;2.60;;;18.30;99.90;;;;;;4976282;28;20390;-76
2023/08/14 05:15:47;;;;;;;3.22;2.90;;;18.30;99.90;;;;;;4993394;28;20105;-75
2023/08/14 05:18:13;;;;;;;5.07;3.92;;;18.40;99.90;;;;;;4993808;28;20030;-76
2023/08/14 05:20:41;;;;;;;15.27;4.03;;;18.50;99.90;;;;;;4994283;28;20531;-75
2023/08/14 05:23:07;;;;;;;9.02;4.38;;;18.80;99.90;;;;;;4993992;28;20145;-75
2023/08/14 05:25:32;;;;;;;8.95;4.43;;;18.90;99.90;;;;;;4992204;28;20156;-78
2023/08/14 05:27:58;;;;;;;43.20;5.15;;;19.00;99.90;;;;;;4993356;28;20496;-76
2023/08/14 05:30:23;;;;;;;10.23;4.18;;;19.00;99.90;;;;;;4991484;28;20402;-75
2023/08/14 05:32:49;;;;;;;8.48;4.35;;;19.20;99.90;;;;;;4992039;28;20464;-76
2023/08/14 05:35:16;;;;;;;31.90;8.02;;;19.30;99.90;;;;;;4993268;28;20034;-74
2023/08/14 05:37:42;;;;;;;14.65;5.38;;;19.40;99.90;;;;;;4993347;28;20026;-75
2023/08/14 05:40:10;;;;;;;11.55;3.83;;;19.50;99.90;;;;;;4993135;28;20479;-75
2023/08/14 05:42:36;;;;;;;9.18;4.95;;;19.60;99.90;;;;;;4993178;28;20105;-76
2023/08/14 05:45:02;;;;;;;11.20;4.70;;;19.60;99.90;;;;;;4992971;28;20030;-75
2023/08/14 05:47:27;;;;;;;16.55;7.28;;;19.80;99.90;;;;;;4992597;28;20051;-76
2023/08/14 05:49:53;;;;;;;10.18;5.20;;;19.70;99.90;;;;;;4993020;28;20061;-75
2023/08/14 05:52:19;;;;;;;13.77;6.22;;;20.00;99.90;;;;;;4991753;28;20030;-76
2023/08/14 05:54:44;;;;;;;9.13;5.38;;;20.10;99.90;;;;;;4992986;28;20030;-77
2023/08/14 05:57:10;;;;;;;22.42;5.38;;;20.20;99.90;;;;;;4993112;28;20026;-77
2023/08/14 05:59:36;;;;;;;5.30;4.43;;;20.20;99.90;;;;;;4992796;28;20050;-75
2023/08/14 06:02:01;;;;;;;10.18;5.50;;;20.10;99.90;;;;;;4974948;28;20040;-76
2023/08/14 06:04:27;;;;;;;5.72;3.95;;;20.20;99.90;;;;;;4991458;28;20390;-76
2023/08/14 06:06:53;;;;;;;6.00;4.13;;;20.20;99.90;;;;;;4992866;28;20030;-77
2023/08/14 06:09:19;;;;;;;5.45;4.43;;;20.20;99.90;;;;;;4995316;28;20062;-76
2023/08/14 06:11:45;;;;;;;5.68;4.03;;;20.10;99.90;;;;;;4996110;28;20489;-77
2023/08/14 06:14:11;;;;;;;7.40;4.38;;;20.20;99.90;;;;;;4993517;28;20027;-76
2023/08/14 06:16:36;;;;;;;3.75;3.17;;;20.30;99.90;;;;;;4991160;28;20030;-75
2023/08/14 06:19:02;;;;;;;5.55;2.95;;;20.30;99.90;;;;;;4992528;28;20216;-76
2023/08/14 06:21:28;;;;;;;3.80;3.40;;;20.30;99.90;;;;;;4990908;28;20030;-74
2023/08/14 06:23:53;;;;;;;3.05;2.70;;;20.30;99.90;;;;;;4992341;28;20104;-76
2023/08/14 06:26:19;;;;;;;3.63;3.33;;;20.40;99.90;;;;;;4992636;28;20049;-76
2023/08/14 06:28:45;;;;;;;4.00;3.67;;;20.50;99.90;;;;;;4992315;28;20382;-77
2023/08/14 06:31:10;;;;;;;3.30;3.00;;;20.60;99.90;;;;;;4991987;28;20030;-75
2023/08/14 06:33:36;;;;;;;5.03;3.25;;;20.60;99.90;;;;;;4991006;28;20101;-76
2023/08/14 06:36:01;;;;;;;5.55;3.03;;;20.70;99.90;;;;;;4992367;28;20428;-77
2023/08/14 06:38:27;;;;;;;3.45;3.15;;;20.90;99.90;;;;;;4992097;28;20104;-76
2023/08/14 06:40:53;;;;;;;4.22;3.03;;;21.00;99.90;;;;;;4994503;28;20034;-75
2023/08/14 06:43:20;;;;;;;3.90;2.78;;;21.20;99.90;;;;;;4984644;28;20018;-76
2023/08/14 06:45:46;;;;;;;5.45;3.42;;;21.30;99.90;;;;;;4985293;28;20171;-75
2023/08/14 06:48:12;;;;;;;3.85;3.45;;;21.30;99.90;;;;;;5003097;28;20014;-76
2023/08/14 06:50:38;;;;;;;4.07;2.65;;;21.50;99.90;;;;;;5002676;28;20042;-76
2023/08/14 06:53:04;;;;;;;2.67;2.47;;;21.70;99.90;;;;;;5001334;28;20069;-75
2023/08/14 06:55:29;;;;;;;2.38;2.17;;;21.90;99.90;;;;;;5000241;28;20167;-75
2023/08/14 06:57:55;;;;;;;2.83;2.63;;;22.00;99.90;;;;;;4996170;28;20014;-77
2023/08/14 07:00:21;;;;;;;3.25;2.70;;;22.20;99.90;;;;;;4991113;28;20458;-76
2023/08/14 07:02:47;;;;;;;4.20;3.20;;;22.40;99.90;;;;;;4987062;28;20053;-76
2023/08/14 07:05:13;;;;;;;4.65;2.63;;;22.70;99.90;;;;;;4990452;28;20380;-76
2023/08/14 07:07:39;;;;;;;2.88;2.10;;;23.60;99.90;;;;;;5002414;28;20037;-76
2023/08/14 07:10:06;;;;;;;8.55;2.90;;;24.30;99.90;;;;;;5011292;28;20383;-76
2023/08/14 07:12:32;;;;;;;3.10;2.50;;;25.00;99.90;;;;;;5011003;28;20045;-76
2023/08/14 07:15:00;;;;;;;3.92;2.65;;;25.40;99.90;;;;;;4993264;28;20030;-77
2023/08/14 07:17:26;;;;;;;2.35;2.10;;;25.70;99.90;;;;;;5010638;28;20026;-78
2023/08/14 07:19:52;;;;;;;4.60;2.00;;;25.90;99.90;;;;;;5011001;28;20407;-77
2023/08/14 07:22:17;;;;;;;4.90;2.30;;;26.10;99.90;;;;;;5010099;28;20022;-76
2023/08/14 07:24:43;;;;;;;4.85;2.42;;;26.50;99.90;;;;;;5011040;28;20026;-77
2023/08/14 07:27:09;;;;;;;4.65;2.38;;;26.80;99.90;;;;;;5010922;28;20054;-77
2023/08/14 07:29:35;;;;;;;7.95;2.20;;;26.60;99.90;;;;;;5010860;28;20022;-76
2023/08/14 07:32:00;;;;;;;3.13;2.10;;;26.50;99.90;;;;;;5008833;28;20038;-77
2023/08/14 07:34:26;;;;;;;3.50;2.17;;;26.50;99.90;;;;;;5010454;28;20467;-77
2023/08/14 07:36:52;;;;;;;8.63;2.00;;;26.30;99.90;;;;;;5010835;28;20091;-76
2023/08/14 07:39:17;;;;;;;2.40;2.20;;;26.10;99.90;;;;;;5010963;28;20197;-77
2023/08/14 07:41:43;;;;;;;2.65;2.08;;;25.80;99.90;;;;;;5000432;28;20399;-76
2023/08/14 07:44:08;;;;;;;3.53;2.40;;;25.70;99.90;;;;;;4990065;28;20508;-77
2023/08/14 07:46:34;;;;;;;2.13;1.92;;;26.00;99.90;;;;;;4989744;28;20034;-76
2023/08/14 07:49:00;;;;;;;3.17;2.17;;;26.40;99.90;;;;;;4989779;28;20029;-76
2023/08/14 07:51:25;;;;;;;3.05;2.03;;;26.40;99.90;;;;;;4990044;28;20143;-77
2023/08/14 07:53:52;;;;;;;2.47;2.28;;;26.30;99.90;;;;;;4972486;28;20026;-77
2023/08/14 07:56:18;;;;;;;2.42;2.10;;;26.60;99.90;;;;;;4972459;28;20084;-77
2023/08/14 07:58:44;;;;;;;3.28;2.40;;;27.40;99.90;;;;;;4990058;28;20050;-77
2023/08/14 08:01:10;;;;;;;3.83;2.65;;;27.90;99.90;;;;;;4973377;28;20403;-76
2023/08/14 08:03:35;;;;;;;3.40;2.00;;;28.40;99.90;;;;;;4970386;28;20030;-77
2023/08/14 08:06:01;;;;;;;4.65;2.38;;;29.10;99.90;;;;;;4970536;28;20037;-77
2023/08/14 08:08:26;;;;;;;3.83;2.60;;;30.10;99.90;;;;;;4968905;28;20034;-77
2023/08/14 08:10:52;;;;;;;2.60;2.40;;;30.70;99.90;;;;;;4970369;28;20047;-78
2023/08/14 08:13:18;;;;;;;7.82;2.60;;;30.90;99.20;;;;;;4968652;28;20027;-77
2023/08/14 08:15:43;;;;;;;5.07;1.88;;;31.20;98.50;;;;;;4969533;28;20037;-78
2023/08/14 08:18:09;;;;;;;3.10;2.80;;;31.80;96.10;;;;;;4970206;28;20030;-75
2023/08/14 08:20:35;;;;;;;2.67;2.15;;;32.20;93.30;;;;;;4952766;28;20019;-74
2023/08/14 08:23:00;;;;;;;2.85;2.00;;;32.50;92.40;;;;;;4968547;28;20019;-75
2023/08/14 08:25:26;;;;;;;4.72;2.13;;;32.80;90.00;;;;;;4952464;28;20062;-75
2023/08/14 08:27:52;;;;;;;1.98;1.80;;;33.00;88.40;;;;;;4952510;28;20035;-75
2023/08/14 08:30:17;;;;;;;3.67;2.20;;;33.60;86.10;;;;;;4969676;28;20038;-75
2023/08/14 08:32:43;;;;;;;3.30;2.75;;;33.60;83.80;;;;;;4969730;28;20023;-76
2023/08/14 08:35:08;;;;;;;2.92;2.47;;;33.70;82.40;;;;;;4970013;28;20069;-77
2023/08/14 08:37:34;;;;;;;2.22;2.13;;;33.60;84.70;;;;;;4985447;28;20113;-76
2023/08/14 08:40:00;;;;;;;2.40;2.20;;;33.20;83.10;;;;;;4989233;28;20439;-78
2023/08/14 08:42:26;;;;;;;7.68;2.90;;;32.70;85.20;;;;;;4988964;28;20022;-78
2023/08/14 08:44:55;;;;;;;4.20;2.40;;;32.60;86.10;;;;;;4989065;28;20456;-78
2023/08/14 08:47:22;;;;;;;;;;;32.00;87.00;;;;;;4989294;28;20028;-78
2023/08/14 08:49:49;;;;;;;4.65;2.50;;;31.20;88.70;;;;;;4989063;28;20293;-78
2023/08/14 08:52:14;;;;;;;2.70;2.50;;;30.60;91.30;;;;;;4989276;28;20014;-78
2023/08/14 08:54:40;;;;;;;2.75;2.50;;;30.00;91.10;;;;;;4989772;28;20371;-77
2023/08/14 08:57:06;;;;;;;2.30;2.10;;;30.50;91.90;;;;;;4989466;28;20472;-78
2023/08/14 08:59:35;;;;;;;2.53;2.33;;;30.60;91.10;;;;;;4989093;28;20115;-77
2023/08/14 09:02:00;;;;;;;3.00;2.42;;;30.20;91.70;;;;;;4988628;28;20092;-76
2023/08/14 09:04:26;;;;;;;2.45;2.25;;;29.80;92.80;;;;;;4989201;28;21105;-77
2023/08/14 09:06:52;;;;;;;3.42;2.67;;;29.50;94.80;;;;;;4971512;28;20030;-78
2023/08/14 09:09:19;;;;;;;5.95;2.20;;;28.90;95.20;;;;;;4971824;28;20057;-77
2023/08/14 09:11:44;;;;;;;3.15;1.95;;;28.00;94.40;;;;;;4971165;28;20030;-78
2023/08/14 09:14:10;;;;;;;2.00;1.85;;;27.80;94.00;;;;;;4989044;28;20501;-78
2023/08/14 09:16:36;;;;;;;3.85;1.80;;;27.90;95.00;;;;;;4988711;28;20031;-77
2023/08/14 09:19:02;;;;;;;5.85;2.17;;;28.00;94.50;;;;;;4988847;28;20220;-77
2023/08/14 09:21:28;;;;;;;2.67;2.35;;;27.90;96.50;;;;;;4971209;28;20117;-78
2023/08/14 09:23:54;;;;;;;2.05;1.80;;;27.50;96.40;;;;;;4988688;28;20101;-78
2023/08/14 09:26:21;;;;;;;2.90;2.22;;;27.00;98.10;;;;;;4971525;28;20069;-78
2023/08/14 09:28:47;;;;;;;2.30;1.75;;;26.70;99.90;;;;;;4988966;28;20503;-78
2023/08/14 09:31:13;;;;;;;2.08;1.88;;;27.10;99.90;;;;;;4988732;28;20038;-78
2023/08/14 09:33:41;;;;;;;4.22;2.15;;;27.30;99.00;;;;;;4988962;28;20026;-77
2023/08/14 09:36:07;;;;;;;2.67;1.92;;;27.70;98.90;;;;;;4985207;28;20344;-78
2023/08/14 09:38:33;;;;;;;5.88;2.40;;;27.70;97.90;;;;;;4969504;28;20026;-77
2023/08/14 09:40:59;;;;;;;2.78;1.90;;;27.40;98.70;;;;;;4951579;28;20027;-78
2023/08/14 09:43:25;;;;;;;4.32;2.60;;;27.90;98.50;;;;;;4969284;28;20105;-76
2023/08/14 09:45:57;;;;;;;6.15;2.30;;;28.30;95.90;;;;;;4952756;28;20424;-77
2023/08/14 09:48:37;;;;;;;3.13;1.80;;;27.80;96.60;;;;;;4955653;28;20031;-77
2023/08/14 09:51:03;;;;;;;4.78;2.58;;;27.70;97.30;;;;;;4973040;28;20030;-76
2023/08/14 09:53:29;;;;;;;2.03;1.60;;;27.60;97.20;;;;;;4972798;28;20039;-77
2023/08/14 09:55:55;;;;;;;3.05;2.38;;;27.50;98.20;;;;;;4972632;28;20440;-77
2023/08/14 09:58:21;;;;;;;5.15;1.88;;;27.30;97.90;;;;;;4972616;28;20042;-76
2023/08/14 10:00:48;;;;;;;2.47;2.15;;;27.40;96.90;;;;;;4972626;28;20054;-77
2023/08/14 10:03:15;;;;;;;5.63;2.20;;;27.40;96.00;;;;;;4954797;28;20563;-78
2023/08/14 10:05:41;;;;;;;2.53;2.13;;;27.50;96.80;;;;;;4972967;28;20046;-77
2023/08/14 10:08:09;;;;;;;5.13;2.13;;;27.80;96.70;;;;;;4971324;28;20497;-77
2023/08/14 10:10:36;;;;;;;5.55;2.00;;;27.30;96.00;;;;;;4972774;28;20045;-77
2023/08/14 10:13:07;;;;;;;3.30;1.95;;;27.60;97.40;;;;;;4972628;28;20023;-77
2023/08/14 10:15:36;;;;;;;3.38;1.80;;;28.00;97.00;;;;;;4972436;28;20314;-77
2023/08/14 10:18:10;;;;;;;3.92;2.35;;;28.20;95.50;;;;;;4971930;28;20031;-77
2023/08/14 10:20:37;;;;;;;2.88;1.70;;;28.30;94.40;;;;;;4972493;28;20471;-78
2023/08/14 10:23:03;;;;;;;5.00;2.35;;;28.50;94.20;;;;;;4971780;28;20019;-78
2023/08/14 10:25:29;;;;;;;3.60;1.92;;;28.70;93.70;;;;;;4955185;28;20141;-78
2023/08/14 10:27:55;;;;;;;4.82;2.00;;;28.90;93.50;;;;;;4972426;28;20146;-79
2023/08/14 10:30:24;;;;;;;1.73;1.55;;;29.10;92.50;;;;;;4982071;28;20034;-78
2023/08/14 10:32:51;;;;;;;5.53;2.20;;;29.40;92.50;;;;;;4991118;28;20029;-78
2023/08/14 10:35:19;;;;;;;3.58;1.98;;;29.40;91.00;;;;;;4974098;28;20042;-77
2023/08/14 10:37:47;;;;;;;4.13;2.17;;;29.50;91.50;;;;;;4974268;28;20256;-77
2023/08/14 10:40:17;;;;;;;1.77;1.67;;;29.50;93.00;;;;;;4977055;28;20113;-77
2023/08/14 10:42:47;;;;;;;1.88;1.70;;;29.20;92.20;;;;;;4972063;28;20462;-76
2023/08/14 10:45:17;;;;;;;2.25;1.77;;;29.20;91.60;;;;;;4972199;28;20027;-77
2023/08/14 10:47:43;;;;;;;2.33;1.67;;;30.00;90.90;;;;;;4972267;28;20039;-78
2023/08/14 10:50:14;;;;;;;2.92;1.80;;;30.40;90.00;;;;;;4971606;28;20093;-78
2023/08/14 10:52:44;;;;;;;2.78;1.90;;;31.40;89.10;;;;;;4971354;28;20054;-77
2023/08/14 10:55:35;;;;;;;1.70;1.60;;;31.40;87.70;;;;;;4954193;28;20023;-78
2023/08/14 10:58:01;;;;;;;3.70;2.10;;;31.50;85.90;;;;;;4971432;28;20227;-76
2023/08/14 11:00:26;;;;;;;2.25;1.50;;;32.10;84.10;;;;;;4971484;28;20222;-75
2023/08/14 11:03:07;;;;;;;3.90;1.85;;;32.10;83.20;;;;;;4953068;28;20113;-75
2023/08/14 11:05:39;;;;;;;3.53;1.80;;;31.90;82.20;;;;;;4971465;28;20027;-75
2023/08/14 11:08:07;;;;;;;2.33;2.00;;;31.40;81.20;;;;;;4971243;28;20421;-77
2023/08/14 11:10:34;;;;;;;2.90;1.85;;;31.60;80.80;;;;;;4971598;28;20042;-77
2023/08/14 11:13:01;;;;;;;1.98;1.85;;;31.80;79.90;;;;;;4974791;28;20015;-78
2023/08/14 11:15:30;;;;;;;5.60;2.22;;;31.60;79.80;;;;;;4972186;28;20037;-77
2023/08/14 11:17:57;;;;;;;7.60;2.33;;;31.40;78.70;;;;;;4971652;28;20058;-78
2023/08/14 11:20:25;;;;;;;1.80;1.70;;;31.40;80.10;;;;;;4970049;28;20031;-78
2023/08/14 11:22:51;;;;;;;3.20;1.80;;;31.30;81.70;;;;;;4971322;28;20045;-78
2023/08/14 11:25:17;;;;;;;3.50;2.25;;;32.30;78.10;;;;;;4971026;28;20476;-75
2023/08/14 11:27:52;;;;;;;3.45;2.00;;;32.70;75.80;;;;;;4971156;28;20030;-75
2023/08/14 11:30:22;;;;;;;2.42;1.63;;;33.40;76.50;;;;;;4953300;28;20451;-75
2023/08/14 11:32:48;;;;;;;3.13;2.25;;;33.90;72.80;;;;;;4955478;28;20022;-75
2023/08/14 11:35:14;;;;;;;2.47;1.65;;;33.90;72.00;;;;;;4968863;28;20117;-75
2023/08/14 11:37:40;;;;;;;3.28;1.75;;;34.30;71.60;;;;;;4952485;28;20391;-75
2023/08/14 11:40:12;;;;;;;2.55;2.20;;;34.60;70.30;;;;;;4970185;28;20030;-74
2023/08/14 11:42:39;;;;;;;2.97;1.77;;;34.40;71.80;;;;;;4970096;28;20023;-75
2023/08/14 11:45:06;;;;;;;1.90;1.75;;;33.60;74.50;;;;;;4969348;28;20475;-75
2023/08/14 11:47:34;;;;;;;3.55;2.38;;;33.20;73.20;;;;;;4969924;28;20023;-75
2023/08/14 11:50:01;;;;;;;3.70;1.50;;;32.90;73.60;;;;;;4953725;28;20039;-75
2023/08/14 11:52:27;;;;;;;3.80;2.15;;;32.60;72.60;;;;;;4971204;28;20045;-74
2023/08/14 11:54:54;;;;;;;5.00;1.80;;;32.50;75.00;;;;;;4969473;28;20539;-74
2023/08/14 11:57:31;;;;;;;5.35;1.38;;;32.70;77.70;;;;;;4969566;28;20049;-75
2023/08/14 11:59:58;;;;;;;8.57;2.42;;;33.10;73.30;;;;;;4968160;28;20050;-75
2023/08/14 12:02:24;;;;;;;7.43;5.38;;;33.10;75.40;;;;;;4968927;28;20042;-75
2023/08/14 12:04:54;;;;;;;6.15;2.20;;;33.00;77.10;;;;;;4969209;28;20027;-75
2023/08/14 12:07:20;;;;;;;3.53;2.47;;;33.40;75.30;;;;;;4969277;28;20026;-75
2023/08/14 12:09:47;;;;;;;2.20;1.42;;;33.90;74.40;;;;;;4968514;28;20125;-75
2023/08/14 12:12:13;;;;;;;3.00;2.33;;;34.20;73.90;;;;;;4979907;28;20043;-75
2023/08/14 12:14:44;;;;;;;1.90;1.80;;;34.20;75.80;;;;;;4961061;28;20066;-75
2023/08/14 12:17:11;;;;;;;3.58;2.50;;;33.70;73.00;;;;;;4977759;28;20081;-75
2023/08/14 12:19:40;;;;;;;3.45;1.65;;;33.70;76.80;;;;;;4975910;28;20031;-75
2023/08/14 12:22:06;;;;;;;7.53;2.35;;;33.00;72.90;;;;;;4978436;28;20298;-75
2023/08/14 12:24:58;;;;;;;4.20;1.85;;;32.50;75.50;;;;;;4980508;28;20031;-75
2023/08/14 12:27:27;;;;;;;3.03;2.28;;;31.70;77.30;;;;;;4977394;28;20071;-75
2023/08/14 12:29:54;;;;;;;2.25;2.05;;;31.20;77.50;;;;;;4970643;28;20109;-75
2023/08/14 12:32:22;;;;;;;3.53;1.80;;;30.70;79.20;;;;;;4968441;28;20588;-75
2023/08/14 12:34:48;;;;;;;2.75;2.33;;;30.70;78.80;;;;;;4970846;28;20034;-75
2023/08/14 12:37:15;;;;;;;14.20;8.20;;;30.70;81.50;;;;;;4972297;28;20034;-74
2023/08/14 12:39:43;;;;;;;7.03;3.03;;;30.60;80.10;;;;;;4972240;28;20015;-74
2023/08/14 12:42:10;;;;;;;;;;;31.10;79.30;;;;;;4971129;28;20023;-75
2023/08/14 12:44:36;;;;;;;2.78;2.10;;;31.50;78.20;;;;;;4953360;28;19907;-75